Time;durP1;ratioP1;P1;durP2;ratioP2;P2;SDS_P1;SDS_P2;PMS_P1;PMS_P2;Temp;Humidity;BMP_temperature;BMP_pressure;BME280_temperature;BME280_humidity;BME280_pressure;Samples;Min_cycle;Max_cycle;Signal;HPM_P1;HPM_P2
2023/03/31 00:00:26;;;;;;;4.88;3.03;;;20.50;78.80;;;;;;5031684;28;20251;-53
2023/03/31 00:02:54;;;;;;;8.80;3.65;;;20.50;78.80;;;;;;5029745;28;20211;-55
2023/03/31 00:05:23;;;;;;;7.00;3.35;;;20.40;78.70;;;;;;5023399;28;20534;-52
2023/03/31 00:07:53;;;;;;;8.00;3.08;;;20.40;78.70;;;;;;5021753;28;20251;-52
2023/03/31 00:10:22;;;;;;;10.15;5.22;;;20.40;78.70;;;;;;5026224;28;20651;-54
2023/03/31 00:12:49;;;;;;;6.32;2.60;;;20.40;78.70;;;;;;5026409;28;20319;-54
2023/03/31 00:15:15;;;;;;;9.95;3.58;;;20.40;78.70;;;;;;5034462;28;20193;-52
2023/03/31 00:17:42;;;;;;;7.95;3.90;;;20.40;78.70;;;;;;5029332;28;20204;-53
2023/03/31 00:20:11;;;;;;;5.53;2.88;;;20.40;78.70;;;;;;5034007;28;20292;-52
2023/03/31 00:22:41;;;;;;;8.68;4.47;;;20.40;78.70;;;;;;5022679;28;20217;-56
2023/03/31 00:25:08;;;;;;;7.13;4.20;;;20.40;78.70;;;;;;5026008;28;20294;-54
2023/03/31 00:27:36;;;;;;;4.68;3.33;;;20.40;78.70;;;;;;5028580;28;20216;-53
2023/03/31 00:30:06;;;;;;;6.03;3.45;;;20.40;78.70;;;;;;5033315;28;20251;-54
2023/03/31 00:32:33;;;;;;;8.30;3.25;;;20.30;78.70;;;;;;5031752;28;20246;-52
2023/03/31 00:35:01;;;;;;;6.53;3.10;;;20.30;78.60;;;;;;5033159;28;20648;-53
2023/03/31 00:37:28;;;;;;;6.88;3.08;;;20.30;78.60;;;;;;5030002;28;20204;-53
2023/03/31 00:39:55;;;;;;;5.07;2.60;;;20.30;78.60;;;;;;5033353;28;20202;-50
2023/03/31 00:42:22;;;;;;;3.80;2.40;;;20.30;78.70;;;;;;5021561;28;21691;-52
2023/03/31 00:45:28;;;;;;;5.68;3.17;;;20.30;78.70;;;;;;5023611;28;20211;-49
2023/03/31 00:48:02;;;;;;;7.38;2.90;;;20.30;78.80;;;;;;5025297;28;20715;-51
2023/03/31 00:50:32;;;;;;;5.22;3.00;;;20.30;78.70;;;;;;5022531;28;20203;-55
2023/03/31 00:53:02;;;;;;;6.70;3.80;;;20.30;78.70;;;;;;5031547;28;20204;-55
2023/03/31 00:55:35;;;;;;;7.53;3.65;;;20.30;78.70;;;;;;5026413;28;20199;-56
2023/03/31 00:58:03;;;;;;;6.05;3.15;;;20.20;78.60;;;;;;5030326;28;20195;-56
2023/03/31 01:00:31;;;;;;;6.72;3.05;;;20.20;78.60;;;;;;5030591;28;20291;-53
2023/03/31 01:03:02;;;;;;;7.95;3.10;;;20.20;78.60;;;;;;5029003;28;20193;-52
2023/03/31 01:05:34;;;;;;;8.40;3.00;;;20.20;78.60;;;;;;5029970;28;20224;-53
2023/03/31 01:08:02;;;;;;;7.68;2.70;;;20.20;78.60;;;;;;5033171;28;20775;-56
2023/03/31 01:10:32;;;;;;;7.05;2.80;;;20.20;78.70;;;;;;5029217;28;20290;-53
2023/03/31 01:12:59;;;;;;;5.72;2.83;;;20.20;78.60;;;;;;5031751;28;20242;-53
2023/03/31 01:15:26;;;;;;;5.25;2.30;;;20.20;78.70;;;;;;5029681;28;20197;-52
2023/03/31 01:17:54;;;;;;;5.70;2.72;;;20.20;78.70;;;;;;5032994;28;20671;-51
2023/03/31 01:20:28;;;;;;;4.85;2.60;;;20.20;78.60;;;;;;5027533;28;20197;-51
2023/03/31 01:23:39;;;;;;;6.30;2.85;;;20.20;78.70;;;;;;5028871;28;20211;-49
2023/03/31 01:26:32;;;;;;;3.80;2.60;;;20.10;78.60;;;;;;5029892;28;20282;-52
2023/03/31 01:29:07;;;;;;;5.90;2.03;;;20.10;78.60;;;;;;5023719;28;20660;-52
2023/03/31 01:31:49;;;;;;;6.93;2.95;;;20.10;78.60;;;;;;5034576;28;20195;-54
2023/03/31 01:34:53;;;;;;;5.97;3.20;;;20.10;78.60;;;;;;5027721;28;20656;-55
2023/03/31 01:38:14;;;;;;;4.05;2.67;;;20.10;78.60;;;;;;5030859;28;20627;-52
2023/03/31 01:40:53;;;;;;;6.25;2.50;;;20.10;78.60;;;;;;5025582;28;20254;-53
2023/03/31 01:43:26;;;;;;;6.70;2.70;;;20.10;78.70;;;;;;5024846;28;20287;-52
2023/03/31 01:46:00;;;;;;;4.18;2.40;;;20.10;78.70;;;;;;5024122;28;20649;-56
2023/03/31 01:48:38;;;;;;;5.40;2.80;;;20.10;78.70;;;;;;5033733;28;20222;-54
2023/03/31 01:51:10;;;;;;;4.55;2.65;;;20.10;78.60;;;;;;5027666;28;20239;-53
2023/03/31 01:53:48;;;;;;;11.75;4.18;;;20.10;78.60;;;;;;5027908;28;20204;-54
2023/03/31 01:56:21;;;;;;;5.65;2.55;;;20.10;78.70;;;;;;5023248;28;20200;-53
2023/03/31 01:58:54;;;;;;;6.05;2.60;;;20.00;78.50;;;;;;5029280;28;20196;-54
2023/03/31 02:01:25;;;;;;;5.30;2.17;;;20.00;78.50;;;;;;5032590;28;20600;-53
2023/03/31 02:03:55;;;;;;;5.05;2.42;;;20.00;78.50;;;;;;5026152;28;20200;-55
2023/03/31 02:06:25;;;;;;;6.22;2.75;;;20.00;78.50;;;;;;5026881;28;20667;-54
2023/03/31 02:08:56;;;;;;;4.15;2.38;;;20.00;78.50;;;;;;5021300;28;20196;-57
2023/03/31 02:11:27;;;;;;;6.07;2.90;;;20.00;78.50;;;;;;5029853;28;20197;-52
2023/03/31 02:13:56;;;;;;;8.10;3.88;;;20.00;78.60;;;;;;5024001;28;20192;-52
2023/03/31 02:16:27;;;;;;;4.57;2.45;;;20.00;78.50;;;;;;5035181;28;20191;-52
2023/03/31 02:19:01;;;;;;;4.70;2.38;;;20.00;78.50;;;;;;5023929;28;20192;-52
2023/03/31 02:21:28;;;;;;;2.60;1.88;;;20.00;78.50;;;;;;5026096;28;20203;-52
2023/03/31 02:23:56;;;;;;;3.33;2.15;;;20.00;78.50;;;;;;5018550;28;20200;-54
2023/03/31 02:26:28;;;;;;;4.28;2.40;;;20.00;78.50;;;;;;5015506;28;20196;-54
2023/03/31 02:28:55;;;;;;;4.15;2.55;;;19.90;78.50;;;;;;5024472;28;20215;-52
2023/03/31 02:31:28;;;;;;;5.20;2.67;;;19.90;78.40;;;;;;5030705;28;20711;-54
2023/03/31 02:33:55;;;;;;;4.93;2.20;;;19.90;78.40;;;;;;5030669;28;20722;-52
2023/03/31 02:36:22;;;;;;;5.88;2.85;;;19.90;78.60;;;;;;5029036;28;20214;-53
2023/03/31 02:38:54;;;;;;;7.85;2.40;;;19.90;78.40;;;;;;5027727;28;20196;-51
2023/03/31 02:41:21;;;;;;;6.05;2.05;;;19.90;78.40;;;;;;5027020;28;20200;-54
2023/03/31 02:43:49;;;;;;;3.78;2.42;;;19.90;78.40;;;;;;5034081;28;20229;-56
2023/03/31 02:46:16;;;;;;;9.93;4.75;;;19.90;79.10;;;;;;5034608;28;20192;-56
2023/03/31 02:48:47;;;;;;;6.10;3.00;;;19.90;78.40;;;;;;5030508;28;20580;-53
2023/03/31 02:51:38;;;;;;;4.95;2.03;;;19.90;78.40;;;;;;5027988;28;20306;-53
2023/03/31 02:54:27;;;;;;;5.72;2.20;;;19.90;78.40;;;;;;5017456;28;20188;-51
2023/03/31 02:57:16;;;;;;;4.32;2.10;;;19.90;78.40;;;;;;5022513;28;20224;-51
2023/03/31 02:59:56;;;;;;;4.82;2.50;;;19.90;78.40;;;;;;5033081;28;20256;-54
2023/03/31 03:02:34;;;;;;;3.28;2.05;;;19.90;78.40;;;;;;5030398;28;20709;-50
2023/03/31 03:05:19;;;;;;;3.50;2.15;;;19.90;78.40;;;;;;5029413;28;20196;-55
2023/03/31 03:07:51;;;;;;;4.45;1.85;;;19.90;78.40;;;;;;5017391;28;20226;-53
2023/03/31 03:10:27;;;;;;;3.65;1.90;;;19.90;78.40;;;;;;5029130;28;20188;-53
2023/03/31 03:12:58;;;;;;;9.13;2.65;;;19.80;78.30;;;;;;5029979;28;20672;-52
2023/03/31 03:15:33;;;;;;;4.00;2.50;;;19.80;78.30;;;;;;5023958;28;20378;-56
2023/03/31 03:18:00;;;;;;;5.95;2.30;;;19.80;78.30;;;;;;5026147;28;20262;-54
2023/03/31 03:20:27;;;;;;;3.55;1.80;;;19.80;78.30;;;;;;5029279;28;20189;-52
2023/03/31 03:22:54;;;;;;;4.75;2.60;;;19.80;78.30;;;;;;5023087;28;20223;-55
2023/03/31 03:25:21;;;;;;;3.00;2.00;;;19.80;78.30;;;;;;5025825;28;20192;-54
2023/03/31 03:27:48;;;;;;;5.88;2.13;;;19.80;78.20;;;;;;5018902;28;20266;-54
2023/03/31 03:30:15;;;;;;;2.30;1.95;;;19.80;78.30;;;;;;5036158;28;20200;-53
2023/03/31 03:32:43;;;;;;;5.50;2.30;;;19.80;78.20;;;;;;5023879;28;20200;-52
2023/03/31 03:35:11;;;;;;;3.22;2.28;;;19.80;78.30;;;;;;5023845;28;20204;-52
2023/03/31 03:37:38;;;;;;;2.75;1.60;;;19.80;78.30;;;;;;5025411;28;20254;-55
2023/03/31 03:40:06;;;;;;;3.15;2.22;;;19.80;78.20;;;;;;5027691;28;20564;-54
2023/03/31 03:42:33;;;;;;;4.53;2.22;;;19.80;78.20;;;;;;5028916;28;20211;-55
2023/03/31 03:45:00;;;;;;;5.75;2.70;;;19.80;78.20;;;;;;5029691;28;20246;-54
2023/03/31 03:47:27;;;;;;;3.05;2.15;;;19.80;78.20;;;;;;5033836;28;20278;-54
2023/03/31 03:49:55;;;;;;;3.50;2.45;;;19.70;78.10;;;;;;5033820;28;20200;-51
2023/03/31 03:52:22;;;;;;;3.72;1.95;;;19.70;78.10;;;;;;5019815;28;20224;-55
2023/03/31 03:54:48;;;;;;;3.53;2.35;;;19.70;78.10;;;;;;5030046;28;20196;-51
2023/03/31 03:57:15;;;;;;;4.68;2.05;;;19.70;78.00;;;;;;5025266;28;20294;-52
2023/03/31 03:59:42;;;;;;;3.60;2.10;;;19.70;78.00;;;;;;5036846;28;20220;-55
2023/03/31 04:02:08;;;;;;;3.13;1.95;;;19.70;78.00;;;;;;5034431;28;20192;-57
2023/03/31 04:04:35;;;;;;;3.78;1.88;;;19.70;78.00;;;;;;5033539;28;20200;-51
2023/03/31 04:07:03;;;;;;;3.67;1.80;;;19.70;78.00;;;;;;5026394;28;20196;-52
2023/03/31 04:09:30;;;;;;;3.50;2.33;;;19.70;78.10;;;;;;5029796;28;20235;-52
2023/03/31 04:11:57;;;;;;;4.28;2.03;;;19.70;78.00;;;;;;5031567;28;20227;-54
2023/03/31 04:14:24;;;;;;;4.43;2.00;;;19.70;78.00;;;;;;5035830;28;20208;-54
2023/03/31 04:16:51;;;;;;;2.67;2.00;;;19.70;78.00;;;;;;5032119;28;20188;-52
2023/03/31 04:19:20;;;;;;;4.78;2.28;;;19.70;78.00;;;;;;5033767;28;20223;-53
2023/03/31 04:21:49;;;;;;;3.83;1.80;;;19.70;78.80;;;;;;5026043;28;20255;-54
2023/03/31 04:24:20;;;;;;;3.55;2.05;;;19.70;78.00;;;;;;5026505;28;20243;-54
2023/03/31 04:26:49;;;;;;;3.72;2.22;;;19.70;78.00;;;;;;5031449;28;20279;-55
2023/03/31 04:29:18;;;;;;;6.47;2.08;;;19.70;78.00;;;;;;5031691;28;20231;-51
2023/03/31 04:31:45;;;;;;;6.07;2.53;;;19.70;78.00;;;;;;5032405;28;20203;-51
2023/03/31 04:34:14;;;;;;;2.45;2.10;;;19.70;78.00;;;;;;5030652;28;20200;-53
2023/03/31 04:36:45;;;;;;;3.45;1.77;;;19.60;77.90;;;;;;5024674;28;20542;-53
2023/03/31 04:39:12;;;;;;;2.65;1.95;;;19.60;77.90;;;;;;5024047;28;20204;-51
2023/03/31 04:41:40;;;;;;;4.38;1.83;;;19.60;77.90;;;;;;5036775;28;20199;-51
2023/03/31 04:44:07;;;;;;;3.10;1.90;;;19.60;77.90;;;;;;5032508;28;20200;-50
2023/03/31 04:46:34;;;;;;;3.80;2.00;;;19.60;77.90;;;;;;5025932;28;20660;-52
2023/03/31 04:49:01;;;;;;;5.22;2.33;;;19.60;77.90;;;;;;5033084;28;20223;-52
2023/03/31 04:51:29;;;;;;;2.88;1.80;;;19.60;77.90;;;;;;5027728;28;20200;-52
2023/03/31 04:53:55;;;;;;;4.82;2.30;;;19.60;77.90;;;;;;5024572;28;20219;-53
2023/03/31 04:56:22;;;;;;;3.75;1.80;;;19.60;77.90;;;;;;5033006;28;20207;-50
2023/03/31 04:58:50;;;;;;;3.50;2.22;;;19.60;77.90;;;;;;5028583;28;20281;-54
2023/03/31 05:01:17;;;;;;;2.63;1.50;;;19.60;77.90;;;;;;5039222;28;20196;-54
2023/03/31 05:03:46;;;;;;;2.28;1.73;;;19.60;77.90;;;;;;5027768;28;20284;-51
2023/03/31 05:06:13;;;;;;;3.22;1.60;;;19.60;77.90;;;;;;5031036;28;20200;-53
2023/03/31 05:08:40;;;;;;;3.00;2.35;;;19.60;77.90;;;;;;5027868;28;20278;-52
2023/03/31 05:11:06;;;;;;;2.50;1.90;;;19.60;77.90;;;;;;5025469;28;20678;-54
2023/03/31 05:13:33;;;;;;;3.65;2.33;;;19.50;77.80;;;;;;5032165;28;20215;-51
2023/03/31 05:16:07;;;;;;;3.20;1.73;;;19.50;77.80;;;;;;5030926;28;20200;-53
2023/03/31 05:18:34;;;;;;;4.60;1.77;;;19.60;77.70;;;;;;5028047;28;20638;-52
2023/03/31 05:21:09;;;;;;;4.20;1.90;;;19.60;77.60;;;;;;5027304;28;20572;-53
2023/03/31 05:23:36;;;;;;;3.78;2.65;;;19.60;77.50;;;;;;5036170;28;20196;-53
2023/03/31 05:26:03;;;;;;;6.65;2.15;;;19.60;77.40;;;;;;5031554;28;20196;-53
2023/03/31 05:28:32;;;;;;;2.85;1.85;;;19.60;77.30;;;;;;5033848;28;20281;-51
2023/03/31 05:31:00;;;;;;;4.57;2.50;;;19.70;77.40;;;;;;5032298;28;20242;-50
2023/03/31 05:33:28;;;;;;;3.63;2.28;;;19.70;77.40;;;;;;5031377;28;20615;-53
2023/03/31 05:35:55;;;;;;;2.85;1.73;;;19.70;77.40;;;;;;5023668;28;20208;-51
2023/03/31 05:38:22;;;;;;;3.28;1.73;;;19.70;77.40;;;;;;5035339;28;20258;-53
2023/03/31 05:40:49;;;;;;;3.95;2.28;;;19.70;77.40;;;;;;5022818;28;20230;-52
2023/03/31 05:43:16;;;;;;;3.20;2.20;;;19.70;77.40;;;;;;5029623;28;20204;-53
2023/03/31 05:45:42;;;;;;;3.17;1.88;;;19.70;77.40;;;;;;5035814;28;20247;-54
2023/03/31 05:48:09;;;;;;;2.20;1.65;;;19.70;77.40;;;;;;5026804;28;20216;-53
2023/03/31 05:50:37;;;;;;;2.85;1.50;;;19.70;78.10;;;;;;5025581;28;20197;-50
2023/03/31 05:53:04;;;;;;;2.42;1.58;;;19.70;77.40;;;;;;5027191;28;20201;-52
2023/03/31 05:55:32;;;;;;;1.92;1.33;;;19.70;77.40;;;;;;5030689;28;20219;-52
2023/03/31 05:57:59;;;;;;;3.40;1.75;;;19.70;77.30;;;;;;5028459;28;20691;-52
2023/03/31 06:00:26;;;;;;;2.80;1.50;;;19.80;77.40;;;;;;5033113;28;20199;-50
2023/03/31 06:02:52;;;;;;;2.28;1.35;;;19.80;77.40;;;;;;5031834;28;20243;-50
2023/03/31 06:05:19;;;;;;;3.38;1.90;;;19.80;77.30;;;;;;5029430;28;20196;-52
2023/03/31 06:07:47;;;;;;;2.55;1.52;;;19.80;77.30;;;;;;5023858;28;20215;-52
2023/03/31 06:10:14;;;;;;;2.42;1.35;;;19.80;77.30;;;;;;5029640;28;20188;-52
2023/03/31 06:12:41;;;;;;;2.08;1.52;;;19.90;77.40;;;;;;5028923;28;20193;-51
2023/03/31 06:15:08;;;;;;;2.25;1.50;;;19.90;77.40;;;;;;5030971;28;20200;-52
2023/03/31 06:17:35;;;;;;;3.70;2.10;;;19.90;77.30;;;;;;5029997;28;20204;-53
2023/03/31 06:20:04;;;;;;;2.35;1.50;;;19.90;77.30;;;;;;5029929;28;20254;-50
2023/03/31 06:22:30;;;;;;;2.25;1.65;;;19.90;77.30;;;;;;5024331;28;20224;-53
2023/03/31 06:24:58;;;;;;;2.05;1.70;;;19.90;77.30;;;;;;5027480;28;20196;-53
2023/03/31 06:27:25;;;;;;;2.08;1.38;;;19.90;77.20;;;;;;5024485;28;20653;-51
2023/03/31 06:29:52;;;;;;;1.77;1.40;;;20.00;77.30;;;;;;5029148;28;20223;-54
2023/03/31 06:32:18;;;;;;;3.22;1.65;;;20.00;77.20;;;;;;5033496;28;20202;-51
2023/03/31 06:34:45;;;;;;;3.25;1.80;;;20.00;77.20;;;;;;5027359;28;20196;-54
2023/03/31 06:37:12;;;;;;;2.25;1.35;;;20.00;77.30;;;;;;5028740;28;20195;-52
2023/03/31 06:39:38;;;;;;;2.92;2.08;;;20.00;77.30;;;;;;5029897;28;20243;-50
2023/03/31 06:42:07;;;;;;;3.45;1.52;;;20.00;77.20;;;;;;5025976;28;20200;-53
2023/03/31 06:44:33;;;;;;;2.40;1.25;;;20.00;77.30;;;;;;5030287;28;20314;-54
2023/03/31 06:47:00;;;;;;;2.58;1.40;;;20.00;77.20;;;;;;5030082;28;20325;-52
2023/03/31 06:49:27;;;;;;;5.43;1.90;;;20.00;77.20;;;;;;5031911;28;20273;-53
2023/03/31 06:51:53;;;;;;;2.95;1.70;;;20.00;77.20;;;;;;5023327;28;20215;-52
2023/03/31 06:54:20;;;;;;;4.00;1.52;;;20.00;77.90;;;;;;5033676;28;20254;-55
2023/03/31 06:56:47;;;;;;;1.85;1.38;;;20.10;77.20;;;;;;5026426;28;20192;-52
2023/03/31 06:59:15;;;;;;;2.05;1.38;;;20.10;77.20;;;;;;5024924;28;20657;-51
2023/03/31 07:01:41;;;;;;;2.15;1.48;;;20.10;77.30;;;;;;5025055;28;20203;-53
2023/03/31 07:04:08;;;;;;;1.98;1.33;;;20.10;77.30;;;;;;5028414;28;20262;-54
2023/03/31 07:06:35;;;;;;;1.92;1.67;;;20.10;77.20;;;;;;5024980;28;20208;-55
2023/03/31 07:09:03;;;;;;;2.20;1.45;;;20.10;77.20;;;;;;5031298;28;20223;-53
2023/03/31 07:11:30;;;;;;;3.67;1.45;;;20.10;77.30;;;;;;5025627;28;20269;-51
2023/03/31 07:13:56;;;;;;;2.20;1.60;;;20.10;77.30;;;;;;5026272;28;20192;-53
2023/03/31 07:16:24;;;;;;;3.03;2.08;;;20.10;77.30;;;;;;5027404;28;20207;-53
2023/03/31 07:18:53;;;;;;;3.78;1.40;;;20.10;77.30;;;;;;5026362;28;20223;-52
2023/03/31 07:21:20;;;;;;;2.75;1.98;;;20.10;77.30;;;;;;5029381;28;20196;-52
2023/03/31 07:23:47;;;;;;;4.07;2.60;;;20.10;77.40;;;;;;5030857;28;20226;-52
2023/03/31 07:26:13;;;;;;;3.40;1.83;;;20.10;77.60;;;;;;5022230;28;20203;-52
2023/03/31 07:28:40;;;;;;;2.90;1.58;;;20.10;77.90;;;;;;5028540;28;20692;-53
2023/03/31 07:31:11;;;;;;;2.10;1.50;;;20.10;77.90;;;;;;5027987;28;20202;-50
2023/03/31 07:33:40;;;;;;;2.85;1.35;;;20.10;78.80;;;;;;5021813;28;20200;-50
2023/03/31 07:36:08;;;;;;;2.90;1.60;;;20.10;78.10;;;;;;5024995;28;20192;-53
2023/03/31 07:38:34;;;;;;;1.90;1.27;;;20.10;78.10;;;;;;5030758;28;20204;-53
2023/03/31 07:41:01;;;;;;;2.35;1.30;;;20.10;78.00;;;;;;5028918;28;20378;-54
2023/03/31 07:43:28;;;;;;;3.58;1.60;;;20.10;78.10;;;;;;5024009;28;20203;-50
2023/03/31 07:45:55;;;;;;;1.95;1.52;;;20.10;78.20;;;;;;5027835;28;20682;-50
2023/03/31 07:48:21;;;;;;;2.30;1.60;;;20.10;78.10;;;;;;5028923;28;20196;-52
2023/03/31 07:50:50;;;;;;;1.95;1.63;;;20.20;78.30;;;;;;5030109;28;20196;-53
2023/03/31 07:53:18;;;;;;;2.13;1.35;;;20.20;78.40;;;;;;5022921;28;20195;-56
2023/03/31 07:55:47;;;;;;;2.97;1.58;;;20.20;78.40;;;;;;5029672;28;20907;-52
2023/03/31 07:58:14;;;;;;;2.40;1.50;;;20.20;78.40;;;;;;5030882;28;20203;-51
2023/03/31 08:00:40;;;;;;;1.45;1.30;;;20.20;78.40;;;;;;5029685;28;20206;-52
2023/03/31 08:03:07;;;;;;;2.28;1.40;;;20.20;78.40;;;;;;5033351;28;20445;-53
2023/03/31 08:05:34;;;;;;;4.07;1.38;;;20.20;78.40;;;;;;5028652;28;20200;-52
2023/03/31 08:08:02;;;;;;;2.45;1.63;;;20.20;78.40;;;;;;5023678;28;20208;-54
2023/03/31 08:10:29;;;;;;;2.78;1.40;;;20.20;78.40;;;;;;5028504;28;20573;-54
2023/03/31 08:12:56;;;;;;;2.38;1.65;;;20.20;78.40;;;;;;5021552;28;20252;-51
2023/03/31 08:15:23;;;;;;;3.22;1.50;;;20.20;78.40;;;;;;5022884;28;20224;-47
2023/03/31 08:17:50;;;;;;;2.92;1.63;;;20.20;78.40;;;;;;5029199;28;20246;-47
2023/03/31 08:20:16;;;;;;;3.25;1.60;;;20.20;78.40;;;;;;5022929;28;20411;-44
2023/03/31 08:22:43;;;;;;;3.80;1.80;;;20.20;78.40;;;;;;5021812;28;20656;-46
2023/03/31 08:25:11;;;;;;;2.17;1.42;;;20.20;78.50;;;;;;5029145;28;20204;-47
2023/03/31 08:27:40;;;;;;;1.98;1.55;;;20.20;78.40;;;;;;5026757;28;20200;-47
2023/03/31 08:30:09;;;;;;;3.95;1.60;;;20.20;78.40;;;;;;5029118;28;20220;-46
2023/03/31 08:32:36;;;;;;;2.20;1.50;;;20.20;78.40;;;;;;5025672;28;20212;-46
2023/03/31 08:35:03;;;;;;;3.28;1.40;;;20.20;78.50;;;;;;5027941;28;20203;-47
2023/03/31 08:37:30;;;;;;;2.47;1.65;;;20.20;78.40;;;;;;5031804;28;20200;-46
2023/03/31 08:39:57;;;;;;;4.57;1.50;;;20.20;78.40;;;;;;5026106;28;20660;-46
2023/03/31 08:42:36;;;;;;;1.55;1.35;;;20.20;78.30;;;;;;5027225;28;21882;-45
2023/03/31 08:45:07;;;;;;;3.28;1.30;;;20.30;78.40;;;;;;5021661;28;20246;-46
2023/03/31 08:47:36;;;;;;;2.90;1.55;;;20.30;78.40;;;;;;5030630;28;20192;-46
2023/03/31 08:50:07;;;;;;;2.33;1.40;;;20.30;79.10;;;;;;5026266;28;20639;-45
2023/03/31 08:52:38;;;;;;;2.08;1.30;;;20.30;78.40;;;;;;5026749;28;20196;-46
2023/03/31 08:55:08;;;;;;;2.90;1.55;;;20.30;78.50;;;;;;5032681;28;20200;-45
2023/03/31 08:57:52;;;;;;;4.32;1.77;;;20.30;78.60;;;;;;5025822;28;20195;-45
2023/03/31 09:00:20;;;;;;;2.85;1.23;;;20.30;78.50;;;;;;5031183;28;20200;-45
2023/03/31 09:02:53;;;;;;;2.15;1.55;;;20.30;78.50;;;;;;5032695;28;20279;-44
2023/03/31 09:05:37;;;;;;;2.00;1.55;;;20.30;78.40;;;;;;5028492;28;20192;-44
2023/03/31 09:08:12;;;;;;;2.30;1.45;;;20.30;78.40;;;;;;5024991;28;20200;-46
2023/03/31 09:10:43;;;;;;;1.50;1.15;;;20.40;78.40;;;;;;5029883;28;20310;-44
2023/03/31 09:13:43;;;;;;;2.80;1.65;;;20.40;78.50;;;;;;5026516;28;20188;-46
2023/03/31 09:16:14;;;;;;;4.93;1.73;;;20.40;78.50;;;;;;5029795;28;20196;-46
2023/03/31 09:18:45;;;;;;;2.10;1.50;;;20.40;79.60;;;;;;5032018;28;20200;-46
2023/03/31 09:21:18;;;;;;;3.95;1.23;;;20.40;80.10;;;;;;5027160;28;20228;-43
2023/03/31 09:23:51;;;;;;;3.25;1.27;;;20.40;80.00;;;;;;5033975;28;21292;-45
2023/03/31 09:26:26;;;;;;;5.95;1.50;;;20.40;80.00;;;;;;5034816;28;20197;-44
2023/03/31 09:28:58;;;;;;;5.13;1.40;;;20.40;80.10;;;;;;5028267;28;20196;-44
2023/03/31 09:31:26;;;;;;;2.42;1.50;;;20.40;80.00;;;;;;5029987;28;20193;-45
2023/03/31 09:34:00;;;;;;;2.00;1.15;;;20.40;80.10;;;;;;5032032;28;20274;-47
2023/03/31 09:36:27;;;;;;;5.57;1.50;;;20.40;80.80;;;;;;5025767;28;20251;-45
2023/03/31 09:38:54;;;;;;;3.97;1.30;;;20.40;79.90;;;;;;5022929;28;20273;-47
2023/03/31 09:41:21;;;;;;;2.42;1.10;;;20.40;79.90;;;;;;5020545;28;20192;-52
2023/03/31 09:43:50;;;;;;;2.03;1.00;;;20.40;79.80;;;;;;5023236;28;20200;-45
2023/03/31 09:46:25;;;;;;;2.08;1.27;;;20.40;79.80;;;;;;5033448;28;20207;-45
2023/03/31 09:48:57;;;;;;;5.40;1.48;;;20.40;79.70;;;;;;5018509;28;20203;-46
2023/03/31 09:51:29;;;;;;;1.55;1.08;;;20.40;79.70;;;;;;5013464;28;20200;-43
2023/03/31 09:54:01;;;;;;;3.17;1.73;;;20.40;79.60;;;;;;5018830;28;20200;-47
2023/03/31 09:56:52;;;;;;;2.30;1.17;;;20.40;79.50;;;;;;5018925;28;20200;-44
2023/03/31 09:59:20;;;;;;;3.22;1.45;;;20.50;79.60;;;;;;5011970;28;20204;-44
2023/03/31 10:01:51;;;;;;;1.33;1.02;;;20.50;79.50;;;;;;5026224;28;20204;-45
2023/03/31 10:04:22;;;;;;;2.05;1.20;;;20.50;79.50;;;;;;5027689;28;20192;-44
2023/03/31 10:06:51;;;;;;;3.08;1.30;;;20.50;79.40;;;;;;5016128;28;20212;-45
2023/03/31 10:09:20;;;;;;;2.45;1.27;;;20.50;79.30;;;;;;5021733;28;20228;-45
2023/03/31 10:11:58;;;;;;;2.72;1.17;;;20.50;79.30;;;;;;5017191;28;20211;-45
2023/03/31 10:14:32;;;;;;;1.60;1.17;;;20.50;79.30;;;;;;5021784;28;20717;-46
2023/03/31 10:17:04;;;;;;;3.08;1.35;;;20.50;79.20;;;;;;5019366;28;20463;-44
2023/03/31 10:19:33;;;;;;;1.50;1.10;;;20.50;79.40;;;;;;5020418;28;20212;-44
2023/03/31 10:22:01;;;;;;;2.53;1.10;;;20.50;79.40;;;;;;5023447;28;20585;-44
2023/03/31 10:24:37;;;;;;;6.10;1.45;;;20.50;79.40;;;;;;5029350;28;20677;-43
2023/03/31 10:27:06;;;;;;;3.90;1.88;;;20.50;79.70;;;;;;5021641;28;20287;-46
2023/03/31 10:29:34;;;;;;;5.57;1.00;;;20.40;79.70;;;;;;5028186;28;20216;-45
2023/03/31 10:32:13;;;;;;;1.35;1.23;;;20.40;79.70;;;;;;5027853;28;20447;-47
2023/03/31 10:34:42;;;;;;;4.03;1.45;;;20.40;80.10;;;;;;5024243;28;20197;-49
2023/03/31 10:37:14;;;;;;;2.20;1.60;;;20.40;79.60;;;;;;5024400;28;20578;-45
2023/03/31 10:39:43;;;;;;;1.70;1.45;;;20.40;79.60;;;;;;5038964;28;20614;-44
2023/03/31 10:42:10;;;;;;;3.15;1.50;;;20.40;79.70;;;;;;5027519;28;20200;-45
2023/03/31 10:44:38;;;;;;;5.20;1.30;;;20.50;79.70;;;;;;5032803;28;20216;-45
2023/03/31 10:47:18;;;;;;;4.43;1.70;;;20.50;79.80;;;;;;5029791;28;20196;-49
2023/03/31 10:49:49;;;;;;;4.53;1.75;;;20.50;79.70;;;;;;5029432;28;20483;-47
2023/03/31 10:52:19;;;;;;;5.45;1.58;;;20.40;79.70;;;;;;5026169;28;20662;-49
2023/03/31 10:54:48;;;;;;;2.13;1.40;;;20.40;79.70;;;;;;5036700;28;20525;-49
2023/03/31 10:57:15;;;;;;;5.95;1.52;;;20.40;79.70;;;;;;5021625;28;20208;-45
2023/03/31 10:59:57;;;;;;;6.65;1.50;;;20.40;79.70;;;;;;5024768;28;20653;-45
2023/03/31 11:02:55;;;;;;;3.58;2.13;;;20.40;79.60;;;;;;5032525;28;20233;-48
2023/03/31 11:05:30;;;;;;;3.97;1.10;;;20.40;79.50;;;;;;5019725;28;20208;-57
2023/03/31 11:08:06;;;;;;;2.83;1.40;;;20.40;80.40;;;;;;5027019;28;20249;-56
2023/03/31 11:10:41;;;;;;;3.55;1.50;;;20.40;79.70;;;;;;5027102;28;20219;-52
2023/03/31 11:13:14;;;;;;;2.88;1.42;;;20.50;79.80;;;;;;5021946;28;20291;-55
2023/03/31 11:15:52;;;;;;;7.03;1.42;;;20.50;79.80;;;;;;5034459;28;20261;-50
2023/03/31 11:18:34;;;;;;;2.55;1.30;;;20.60;80.10;;;;;;5035223;28;20644;-46
2023/03/31 11:21:08;;;;;;;3.45;1.38;;;20.60;80.20;;;;;;5030380;28;20200;-54
2023/03/31 11:23:41;;;;;;;2.60;1.50;;;20.60;80.30;;;;;;5023910;28;20702;-53
2023/03/31 11:26:11;;;;;;;2.33;1.38;;;20.70;80.60;;;;;;5028818;28;20658;-50
2023/03/31 11:28:57;;;;;;;1.77;1.40;;;20.70;80.60;;;;;;5033887;28;20265;-53
2023/03/31 11:31:32;;;;;;;2.75;1.30;;;20.70;80.70;;;;;;5037677;28;20483;-52
2023/03/31 11:34:21;;;;;;;2.05;1.60;;;20.70;80.70;;;;;;5023362;28;20199;-52
2023/03/31 11:37:14;;;;;;;3.20;1.33;;;20.70;80.70;;;;;;5034237;28;20611;-49
2023/03/31 11:39:51;;;;;;;3.65;1.77;;;20.80;80.90;;;;;;5021128;28;20549;-50
2023/03/31 11:42:22;;;;;;;3.33;1.50;;;20.80;80.80;;;;;;5027984;28;20200;-54
2023/03/31 11:44:54;;;;;;;1.95;1.20;;;20.80;80.90;;;;;;5032414;28;20196;-46
2023/03/31 11:47:24;;;;;;;1.63;1.00;;;20.80;80.80;;;;;;5037651;28;20196;-45
2023/03/31 11:49:55;;;;;;;2.30;1.60;;;20.90;81.00;;;;;;5032800;28;20565;-48
2023/03/31 11:52:28;;;;;;;1.40;1.00;;;20.90;80.90;;;;;;5034127;28;20516;-49
2023/03/31 11:54:58;;;;;;;1.63;1.20;;;20.90;81.00;;;;;;5032802;28;20457;-48
2023/03/31 11:57:29;;;;;;;2.30;1.33;;;20.90;81.80;;;;;;5031255;28;20205;-47
2023/03/31 12:00:00;;;;;;;3.58;1.23;;;20.90;81.00;;;;;;5024215;28;20200;-46
2023/03/31 12:02:38;;;;;;;1.45;1.10;;;20.90;81.00;;;;;;5030125;28;20196;-47
2023/03/31 12:05:08;;;;;;;2.00;1.50;;;20.90;81.00;;;;;;5025709;28;20660;-46
2023/03/31 12:07:41;;;;;;;2.20;1.60;;;20.90;81.00;;;;;;5032912;28;20506;-47
2023/03/31 12:10:17;;;;;;;1.77;1.20;;;20.90;81.00;;;;;;5038864;28;20490;-51
2023/03/31 12:12:47;;;;;;;1.25;1.05;;;20.90;81.00;;;;;;5025164;28;20781;-55
2023/03/31 12:15:19;;;;;;;1.43;1.00;;;20.90;81.00;;;;;;5032019;28;20603;-54
2023/03/31 12:17:50;;;;;;;2.13;1.43;;;20.90;80.90;;;;;;5031517;28;21112;-49
2023/03/31 12:20:26;;;;;;;2.07;1.00;;;21.00;81.00;;;;;;5026645;28;20862;-52
2023/03/31 12:22:56;;;;;;;2.92;1.30;;;21.00;81.00;;;;;;5033590;28;20482;-46
2023/03/31 12:25:25;;;;;;;1.87;1.23;;;21.00;81.00;;;;;;5024580;28;20209;-45
2023/03/31 12:27:53;;;;;;;1.50;1.27;;;21.00;81.00;;;;;;5026343;28;20451;-48
2023/03/31 12:30:27;;;;;;;1.50;1.00;;;21.00;81.00;;;;;;5028976;28;20490;-50
2023/03/31 12:33:01;;;;;;;3.07;1.23;;;21.00;81.00;;;;;;5034085;28;20463;-45
2023/03/31 12:35:38;;;;;;;2.10;1.70;;;21.00;81.00;;;;;;5036239;28;20930;-48
2023/03/31 12:38:26;;;;;;;2.23;1.00;;;21.00;81.00;;;;;;5030257;28;20457;-51
2023/03/31 12:41:03;;;;;;;1.30;0.90;;;21.00;80.90;;;;;;5029098;28;20442;-49
2023/03/31 12:43:56;;;;;;;1.50;1.10;;;21.10;81.00;;;;;;5024698;28;20959;-54
2023/03/31 12:46:43;;;;;;;1.23;0.90;;;21.00;80.90;;;;;;5028441;28;20576;-50
2023/03/31 12:49:20;;;;;;;2.60;1.30;;;21.10;81.00;;;;;;5022351;28;20463;-52
2023/03/31 12:52:00;;;;;;;2.00;1.03;;;21.10;81.00;;;;;;5035231;28;20525;-54
2023/03/31 12:54:48;;;;;;;2.17;1.30;;;21.10;81.00;;;;;;5029877;28;20465;-57
2023/03/31 12:57:20;;;;;;;1.30;1.20;;;21.10;80.90;;;;;;5028778;28;20868;-49
2023/03/31 13:00:15;;;;;;;1.65;1.30;;;21.10;81.00;;;;;;5028162;28;20447;-48
2023/03/31 13:02:43;;;;;;;1.20;1.10;;;21.10;80.90;;;;;;5029118;28;20200;-50
2023/03/31 13:05:43;;;;;;;1.77;1.20;;;21.20;81.00;;;;;;5028908;28;20462;-52
2023/03/31 13:08:11;;;;;;;1.70;1.07;;;21.20;80.90;;;;;;5033232;28;20461;-53